Time;durP1;ratioP1;P1;durP2;ratioP2;P2;SDS_P1;SDS_P2;PMS_P1;PMS_P2;Temp;Humidity;BMP_temperature;BMP_pressure;BME280_temperature;BME280_humidity;BME280_pressure;Samples;Min_cycle;Max_cycle;Signal;HPM_P1;HPM_P2
2022/03/18 00:00:39;;;;;;;;;1.60;1.60;;;;;;;;5210416;28;8786;-79
2022/03/18 00:03:12;;;;;;;;;5.40;5.40;;;;;;;;5210457;28;9524;-78
2022/03/18 00:05:44;;;;;;;;;7.00;7.00;;;;;;;;5243223;28;8951;-79
2022/03/18 00:08:16;;;;;;;;;8.00;7.00;;;;;;;;5226601;28;8798;-80
2022/03/18 00:10:47;;;;;;;;;9.60;9.60;;;;;;;;5210054;28;8863;-80
2022/03/18 00:13:19;;;;;;;;;12.60;11.20;;;;;;;;5241223;28;8798;-81
2022/03/18 00:15:54;;;;;;;;;6.60;6.60;;;;;;;;5210578;28;8979;-79
2022/03/18 00:18:44;;;;;;;;;7.60;7.60;;;;;;;;5212592;28;8833;-76
2022/03/18 00:21:16;;;;;;;;;10.40;10.40;;;;;;;;5193641;28;8794;-77
2022/03/18 00:24:07;;;;;;;;;12.80;12.80;;;;;;;;5212258;28;8805;-78
2022/03/18 00:26:38;;;;;;;;;19.20;18.20;;;;;;;;5205536;28;8830;-77
2022/03/18 00:29:12;;;;;;;;;22.60;21.60;;;;;;;;5205455;28;8926;-76
2022/03/18 00:31:45;;;;;;;;;9.60;9.60;;;;;;;;5192944;28;8849;-78
2022/03/18 00:34:17;;;;;;;;;14.20;13.20;;;;;;;;5189317;28;8796;-79
2022/03/18 00:37:07;;;;;;;;;9.60;9.60;;;;;;;;5206097;28;8796;-79
2022/03/18 00:39:39;;;;;;;;;12.00;11.80;;;;;;;;5222198;28;8800;-80
2022/03/18 00:42:12;;;;;;;;;5.00;5.00;;;;;;;;5189726;28;8769;-80
2022/03/18 00:44:44;;;;;;;;;5.80;5.80;;;;;;;;5206091;28;8836;-79
2022/03/18 00:52:55;;;;;;;;;4.60;4.60;;;;;;;;5207128;28;8792;-79
2022/03/18 00:55:27;;;;;;;;;6.60;6.00;;;;;;;;5196704;28;8832;-82
2022/03/18 00:57:59;;;;;;;;;4.00;4.00;;;;;;;;5198838;28;8815;-83
2022/03/18 01:00:31;;;;;;;;;5.20;3.60;;;;;;;;5208588;28;8870;-83
2022/03/18 01:03:02;;;;;;;;;2.40;2.40;;;;;;;;5222979;28;9495;-83
2022/03/18 01:05:34;;;;;;;;;3.80;3.20;;;;;;;;5210829;28;8848;-80
2022/03/18 01:08:25;;;;;;;;;4.00;4.00;;;;;;;;5240352;28;8801;-80
2022/03/18 01:10:59;;;;;;;;;4.00;4.00;;;;;;;;5213912;28;8800;-80
2022/03/18 01:13:31;;;;;;;;;4.80;4.40;;;;;;;;5205811;28;8795;-79
2022/03/18 01:16:03;;;;;;;;;1.00;1.00;;;;;;;;5205110;28;9535;-81
2022/03/18 01:18:35;;;;;;;;;3.00;3.00;;;;;;;;5205518;28;8796;-81
2022/03/18 01:21:07;;;;;;;;;6.00;6.00;;;;;;;;5205605;28;8781;-81
2022/03/18 01:23:39;;;;;;;;;4.00;4.00;;;;;;;;5205792;28;9622;-80
2022/03/18 01:26:10;;;;;;;;;0.00;0.00;;;;;;;;5199391;28;8832;-80
2022/03/18 01:28:42;;;;;;;;;3.00;3.00;;;;;;;;5205204;28;8796;-79
2022/03/18 01:31:14;;;;;;;;;5.00;5.00;;;;;;;;5205307;28;8816;-79
2022/03/18 01:34:04;;;;;;;;;6.00;4.80;;;;;;;;5198753;28;8839;-80
2022/03/18 01:36:36;;;;;;;;;0.00;0.00;;;;;;;;5209451;28;8801;-79
2022/03/18 01:39:09;;;;;;;;;4.40;4.40;;;;;;;;5225767;28;8920;-80
2022/03/18 01:41:40;;;;;;;;;3.80;3.80;;;;;;;;5209292;28;8781;-79
2022/03/18 01:44:13;;;;;;;;;1.00;1.00;;;;;;;;5206042;28;9543;-79
2022/03/18 01:46:45;;;;;;;;;3.60;3.60;;;;;;;;5205133;28;8846;-79
2022/03/18 01:49:17;;;;;;;;;3.40;3.40;;;;;;;;5221078;28;8819;-78
2022/03/18 01:51:50;;;;;;;;;4.00;4.00;;;;;;;;5188140;28;8907;-81
2022/03/18 01:57:14;;;;;;;;;4.40;3.80;;;;;;;;5204451;28;8927;-78
2022/03/18 01:59:48;;;;;;;;;2.20;2.20;;;;;;;;5230148;28;9524;-78
2022/03/18 02:02:21;;;;;;;;;4.00;4.00;;;;;;;;5224784;28;8896;-78
2022/03/18 02:04:55;;;;;;;;;3.40;3.40;;;;;;;;5203426;28;8804;-78
2022/03/18 02:07:28;;;;;;;;;5.60;4.00;;;;;;;;5171460;28;8962;-80
2022/03/18 02:10:01;;;;;;;;;4.80;4.80;;;;;;;;5196844;28;8793;-82
2022/03/18 02:12:35;;;;;;;;;6.00;6.00;;;;;;;;5224651;28;9781;-79
2022/03/18 02:15:09;;;;;;;;;7.60;7.60;;;;;;;;5224872;28;8890;-81
2022/03/18 02:17:42;;;;;;;;;3.20;3.20;;;;;;;;5191953;28;8809;-80
2022/03/18 02:20:34;;;;;;;;;3.60;3.60;;;;;;;;5202034;28;8802;-80
2022/03/18 02:23:06;;;;;;;;;9.40;9.40;;;;;;;;5202604;28;8793;-77
2022/03/18 02:25:36;;;;;;;;;7.20;7.20;;;;;;;;5187086;28;8836;-79
2022/03/18 02:28:26;;;;;;;;;3.40;3.00;;;;;;;;5238463;28;9508;-77
2022/03/18 02:30:57;;;;;;;;;12.40;12.00;;;;;;;;5206192;28;8805;-79
2022/03/18 02:33:28;;;;;;;;;8.80;8.20;;;;;;;;5189951;28;8891;-78
2022/03/18 02:36:00;;;;;;;;;7.60;7.60;;;;;;;;5219012;28;8924;-79
2022/03/18 02:38:31;;;;;;;;;9.40;9.40;;;;;;;;5222410;28;8814;-82
2022/03/18 02:41:02;;;;;;;;;9.00;9.00;;;;;;;;5225638;28;8916;-80
2022/03/18 02:43:34;;;;;;;;;8.20;8.20;;;;;;;;5224523;28;8830;-80
2022/03/18 02:46:05;;;;;;;;;15.20;15.00;;;;;;;;5224127;28;8901;-80
2022/03/18 02:48:37;;;;;;;;;14.20;14.20;;;;;;;;5207520;28;8789;-78
2022/03/18 02:51:08;;;;;;;;;9.60;9.60;;;;;;;;5207528;28;8781;-78
2022/03/18 02:53:58;;;;;;;;;9.80;9.40;;;;;;;;5217373;28;8815;-80
2022/03/18 02:56:31;;;;;;;;;28.20;27.80;;;;;;;;5202917;28;8800;-80
2022/03/18 02:59:21;;;;;;;;;29.20;26.20;;;;;;;;5217246;28;8780;-76
2022/03/18 03:02:12;;;;;;;;;44.60;39.80;;;;;;;;5204540;28;8919;-77
2022/03/18 03:10:23;;;;;;;;;42.40;33.60;;;;;;;;5204071;28;9525;-79
2022/03/18 03:12:55;;;;;;;;;24.20;23.20;;;;;;;;5210038;28;8805;-77
2022/03/18 03:15:27;;;;;;;;;33.60;33.40;;;;;;;;5195894;28;8905;-82
2022/03/18 03:17:58;;;;;;;;;32.00;29.20;;;;;;;;5205068;28;8788;-81
2022/03/18 03:20:29;;;;;;;;;37.80;33.20;;;;;;;;5233993;28;8798;-79
2022/03/18 03:23:19;;;;;;;;;44.20;42.60;;;;;;;;5210169;28;8812;-79
2022/03/18 03:25:51;;;;;;;;;37.60;33.40;;;;;;;;5205938;28;8815;-79
2022/03/18 03:28:23;;;;;;;;;64.20;54.40;;;;;;;;5189904;28;8850;-84
2022/03/18 03:30:54;;;;;;;;;78.00;59.25;;;;;;;;5207711;28;8899;-84
2022/03/18 03:33:26;;;;;;;;;104.50;74.50;;;;;;;;5207014;28;8792;-83
2022/03/18 03:35:57;;;;;;;;;136.50;126.00;;;;;;;;5206855;28;8768;-83
2022/03/18 03:38:29;;;;;;;;;155.50;120.75;;;;;;;;5218944;28;10598;-81
2022/03/18 03:41:21;;;;;;;;;107.33;86.00;;;;;;;;5207807;28;10902;-83
2022/03/18 03:43:52;;;;;;;;;90.75;69.50;;;;;;;;5206725;28;9380;-83
2022/03/18 03:46:24;;;;;;;;;67.40;57.60;;;;;;;;5221096;28;8845;-76
2022/03/18 03:48:55;;;;;;;;;86.00;69.00;;;;;;;;5243559;28;8782;-75
2022/03/18 03:51:45;;;;;;;;;77.50;61.00;;;;;;;;5227109;28;8781;-74
2022/03/18 03:54:16;;;;;;;;;72.20;58.80;;;;;;;;5226970;28;8986;-75
2022/03/18 03:56:47;;;;;;;;;78.40;60.60;;;;;;;;5226766;28;8904;-75
2022/03/18 03:59:19;;;;;;;;;84.75;66.25;;;;;;;;5210043;28;8781;-76
2022/03/18 04:01:50;;;;;;;;;105.00;78.75;;;;;;;;5239130;28;8927;-78
2022/03/18 04:04:22;;;;;;;;;101.25;71.75;;;;;;;;5199884;28;8815;-79
2022/03/18 04:06:54;;;;;;;;;102.50;76.50;;;;;;;;5189815;28;8809;-80
2022/03/18 04:09:26;;;;;;;;;103.25;76.00;;;;;;;;5207579;28;8785;-83
2022/03/18 04:11:57;;;;;;;;;103.25;75.25;;;;;;;;5239046;28;8796;-79
2022/03/18 04:14:28;;;;;;;;;108.50;84.00;;;;;;;;5205757;28;8780;-79
2022/03/18 04:17:02;;;;;;;;;132.67;102.33;;;;;;;;5189305;28;8781;-82
2022/03/18 04:19:34;;;;;;;;;168.75;131.25;;;;;;;;5188643;28;10173;-79
2022/03/18 04:22:05;;;;;;;;;195.50;144.00;;;;;;;;5205467;28;11186;-72
2022/03/18 04:24:36;;;;;;;;;202.50;149.00;;;;;;;;5205385;28;11060;-73
2022/03/18 04:27:08;;;;;;;;;147.50;117.25;;;;;;;;5205135;28;11077;-73
2022/03/18 04:29:39;;;;;;;;;179.50;133.25;;;;;;;;5188978;28;10600;-73
2022/03/18 04:32:11;;;;;;;;;151.50;123.75;;;;;;;;5221892;28;10366;-74
2022/03/18 04:34:43;;;;;;;;;151.50;122.00;;;;;;;;5220638;28;9942;-75
2022/03/18 04:37:14;;;;;;;;;162.00;127.00;;;;;;;;5201795;28;10136;-75
2022/03/18 04:39:45;;;;;;;;;170.25;129.25;;;;;;;;5219756;28;10706;-76
2022/03/18 04:42:17;;;;;;;;;107.75;82.00;;;;;;;;5202943;28;10610;-75
2022/03/18 04:44:48;;;;;;;;;102.25;77.50;;;;;;;;5202612;28;8824;-76
2022/03/18 04:47:19;;;;;;;;;108.00;81.00;;;;;;;;5203415;28;8854;-75
2022/03/18 04:50:10;;;;;;;;;107.00;85.00;;;;;;;;5203443;28;8838;-75
2022/03/18 04:52:41;;;;;;;;;64.40;52.40;;;;;;;;5170324;28;8812;-74
2022/03/18 04:55:13;;;;;;;;;62.40;52.80;;;;;;;;5228561;28;8795;-77
2022/03/18 04:57:44;;;;;;;;;67.40;51.80;;;;;;;;5223082;28;8916;-74
2022/03/18 05:00:17;;;;;;;;;70.60;58.00;;;;;;;;5224789;28;8799;-74
2022/03/18 05:02:48;;;;;;;;;86.60;68.60;;;;;;;;5209211;28;8786;-76
2022/03/18 05:05:20;;;;;;;;;70.80;58.80;;;;;;;;5225431;28;8779;-73
2022/03/18 05:07:51;;;;;;;;;83.80;65.20;;;;;;;;5209835;28;8792;-76
2022/03/18 05:10:23;;;;;;;;;89.50;67.25;;;;;;;;5194263;28;9619;-78
2022/03/18 05:12:55;;;;;;;;;82.25;67.75;;;;;;;;5192568;28;8800;-74
2022/03/18 05:15:26;;;;;;;;;91.00;72.50;;;;;;;;5205912;28;8796;-74
2022/03/18 05:17:57;;;;;;;;;83.50;66.00;;;;;;;;5258386;28;8790;-75
2022/03/18 05:20:29;;;;;;;;;105.00;79.00;;;;;;;;5208404;28;8797;-76
2022/03/18 05:23:01;;;;;;;;;96.00;73.75;;;;;;;;5225069;28;8812;-73
2022/03/18 05:25:33;;;;;;;;;110.50;93.25;;;;;;;;5202178;28;8918;-75
2022/03/18 05:28:04;;;;;;;;;97.75;79.00;;;;;;;;5187763;28;8816;-76
2022/03/18 05:30:36;;;;;;;;;92.00;72.75;;;;;;;;5204309;28;8899;-74
2022/03/18 05:33:07;;;;;;;;;105.25;90.75;;;;;;;;5204231;28;8784;-74
2022/03/18 05:35:38;;;;;;;;;94.75;74.00;;;;;;;;5187240;28;8819;-74
2022/03/18 05:38:09;;;;;;;;;87.00;70.00;;;;;;;;5220772;28;8931;-73
2022/03/18 05:40:41;;;;;;;;;91.25;72.00;;;;;;;;5205354;28;9669;-75
2022/03/18 05:43:13;;;;;;;;;84.80;65.20;;;;;;;;5199010;28;11530;-75
2022/03/18 05:46:02;;;;;;;;;91.60;70.80;;;;;;;;5224738;28;8871;-74
2022/03/18 05:48:33;;;;;;;;;82.50;66.25;;;;;;;;5207913;28;8774;-74
2022/03/18 05:51:04;;;;;;;;;86.40;69.20;;;;;;;;5208076;28;9054;-73
2022/03/18 05:53:38;;;;;;;;;81.75;63.00;;;;;;;;5224270;28;8786;-74
2022/03/18 05:59:00;;;;;;;;;80.20;60.20;;;;;;;;5220661;28;8858;-75
2022/03/18 06:01:31;;;;;;;;;88.75;69.50;;;;;;;;5203844;28;8795;-74
2022/03/18 06:04:02;;;;;;;;;88.80;66.60;;;;;;;;5204795;28;8792;-73
2022/03/18 06:06:53;;;;;;;;;95.75;73.25;;;;;;;;5203548;28;8820;-78
2022/03/18 06:12:14;;;;;;;;;98.50;78.50;;;;;;;;5224145;28;8823;-75
2022/03/18 06:15:03;;;;;;;;;88.50;72.00;;;;;;;;5223697;28;8836;-74
2022/03/18 06:17:34;;;;;;;;;92.25;72.75;;;;;;;;5207031;28;8876;-75
2022/03/18 06:20:06;;;;;;;;;94.50;74.00;;;;;;;;5191067;28;8805;-74
2022/03/18 06:22:37;;;;;;;;;83.20;63.40;;;;;;;;5223827;28;8810;-75
2022/03/18 06:25:08;;;;;;;;;79.40;61.80;;;;;;;;5222979;28;9552;-76
2022/03/18 06:27:58;;;;;;;;;88.60;66.60;;;;;;;;5209992;28;8806;-75
2022/03/18 06:30:30;;;;;;;;;104.25;88.00;;;;;;;;5207444;28;8792;-74
2022/03/18 06:33:22;;;;;;;;;101.50;80.00;;;;;;;;5238327;28;8816;-76
2022/03/18 06:35:56;;;;;;;;;96.25;73.00;;;;;;;;5207456;28;8818;-75
2022/03/18 06:38:46;;;;;;;;;96.25;74.50;;;;;;;;5224804;28;8774;-75
2022/03/18 06:41:19;;;;;;;;;95.75;72.75;;;;;;;;5224320;28;8806;-75
2022/03/18 06:43:50;;;;;;;;;85.80;68.80;;;;;;;;5224079;28;8932;-75
2022/03/18 06:46:21;;;;;;;;;84.00;66.60;;;;;;;;5207236;28;8875;-75
2022/03/18 06:48:53;;;;;;;;;80.80;65.00;;;;;;;;5207186;28;8774;-75
2022/03/18 06:51:24;;;;;;;;;79.80;64.60;;;;;;;;5207440;28;8864;-75
2022/03/18 06:53:59;;;;;;;;;79.40;64.00;;;;;;;;5207389;28;8774;-75
2022/03/18 06:56:30;;;;;;;;;84.40;63.00;;;;;;;;5224072;28;8800;-75
2022/03/18 06:59:02;;;;;;;;;109.75;96.25;;;;;;;;5225811;28;8806;-75
2022/03/18 07:01:33;;;;;;;;;100.25;87.00;;;;;;;;5244845;28;8781;-75
2022/03/18 07:04:04;;;;;;;;;101.75;80.75;;;;;;;;5211360;28;8778;-74
2022/03/18 07:06:35;;;;;;;;;112.75;100.50;;;;;;;;5211334;28;9559;-75
2022/03/18 07:09:06;;;;;;;;;135.50;108.25;;;;;;;;5244188;28;8805;-75
2022/03/18 07:11:37;;;;;;;;;137.50;125.00;;;;;;;;5210929;28;10292;-75
2022/03/18 07:14:09;;;;;;;;;101.50;80.25;;;;;;;;5228052;28;10968;-75
2022/03/18 07:19:29;;;;;;;;;128.75;113.75;;;;;;;;5228772;28;10009;-75
2022/03/18 07:22:00;;;;;;;;;86.00;58.00;;;;;;;;5210876;28;10079;-75
2022/03/18 07:24:32;;;;;;;;;140.00;108.67;;;;;;;;5227289;28;9533;-75
2022/03/18 07:27:03;;;;;;;;;116.00;102.25;;;;;;;;5228786;28;9601;-75
2022/03/18 07:29:34;;;;;;;;;97.25;84.25;;;;;;;;5210563;28;8802;-76
2022/03/18 07:32:05;;;;;;;;;106.50;87.50;;;;;;;;5227114;28;8890;-74
2022/03/18 07:34:37;;;;;;;;;100.50;85.00;;;;;;;;5227287;28;8996;-75
2022/03/18 07:37:08;;;;;;;;;95.50;76.25;;;;;;;;5227391;28;8883;-75
2022/03/18 07:39:39;;;;;;;;;76.00;61.60;;;;;;;;5228332;28;8801;-75
2022/03/18 07:42:10;;;;;;;;;77.60;62.60;;;;;;;;5210389;28;8786;-76
2022/03/18 07:44:42;;;;;;;;;59.80;50.20;;;;;;;;5227016;28;9524;-76
2022/03/18 07:47:31;;;;;;;;;64.20;54.20;;;;;;;;5226936;28;8809;-76
2022/03/18 07:50:02;;;;;;;;;79.50;62.25;;;;;;;;5226708;28;8952;-76
2022/03/18 07:52:34;;;;;;;;;81.00;64.00;;;;;;;;5210404;28;8855;-76
2022/03/18 07:55:05;;;;;;;;;77.40;60.60;;;;;;;;5210075;28;8916;-76
2022/03/18 07:57:37;;;;;;;;;73.60;57.60;;;;;;;;5209938;28;8781;-76
2022/03/18 08:00:09;;;;;;;;;69.20;56.00;;;;;;;;5209894;28;8798;-75
2022/03/18 08:02:49;;;;;;;;;68.80;56.20;;;;;;;;5242308;28;8798;-76
2022/03/18 08:05:21;;;;;;;;;65.20;53.80;;;;;;;;5227770;28;8794;-76
2022/03/18 08:07:53;;;;;;;;;44.00;39.40;;;;;;;;5209767;28;8813;-76
2022/03/18 08:10:24;;;;;;;;;95.50;83.50;;;;;;;;5242891;28;8786;-76
2022/03/18 08:12:57;;;;;;;;;62.80;53.60;;;;;;;;5226565;28;8867;-76
2022/03/18 08:15:28;;;;;;;;;71.00;57.40;;;;;;;;5226234;28;8816;-75
2022/03/18 08:18:00;;;;;;;;;48.60;42.40;;;;;;;;5209853;28;8801;-75
2022/03/18 08:20:31;;;;;;;;;60.60;51.60;;;;;;;;5226539;28;8882;-74
2022/03/18 08:23:02;;;;;;;;;46.80;41.60;;;;;;;;5227493;28;8824;-75
2022/03/18 08:25:33;;;;;;;;;40.00;37.20;;;;;;;;5209666;28;8825;-76
2022/03/18 08:28:05;;;;;;;;;34.00;32.60;;;;;;;;5209760;28;8821;-76
2022/03/18 08:30:36;;;;;;;;;29.80;29.80;;;;;;;;5209548;28;8781;-75
2022/03/18 08:33:27;;;;;;;;;20.20;20.20;;;;;;;;5227521;28;8790;-75
2022/03/18 08:35:58;;;;;;;;;18.00;18.00;;;;;;;;5226157;28;8887;-75
2022/03/18 08:38:29;;;;;;;;;26.40;26.40;;;;;;;;5225983;28;8802;-75
2022/03/18 08:41:18;;;;;;;;;36.20;33.40;;;;;;;;5226171;28;8794;-76
2022/03/18 08:43:49;;;;;;;;;37.60;32.80;;;;;;;;5226078;28;8794;-75
2022/03/18 08:46:20;;;;;;;;;39.50;36.25;;;;;;;;5209204;28;8778;-76
2022/03/18 08:48:52;;;;;;;;;35.80;35.80;;;;;;;;5225776;28;11543;-76
2022/03/18 08:51:24;;;;;;;;;27.60;27.60;;;;;;;;5209210;28;8807;-76
2022/03/18 08:53:55;;;;;;;;;41.00;39.00;;;;;;;;5225862;28;8816;-76
2022/03/18 08:56:44;;;;;;;;;29.60;27.20;;;;;;;;5225794;28;8790;-76
2022/03/18 08:59:15;;;;;;;;;39.75;38.00;;;;;;;;5209294;28;8794;-76
2022/03/18 09:01:46;;;;;;;;;26.20;26.00;;;;;;;;5208873;28;8794;-76
2022/03/18 09:04:17;;;;;;;;;23.75;22.25;;;;;;;;5208924;28;9578;-76
2022/03/18 09:06:48;;;;;;;;;21.75;20.50;;;;;;;;5208733;28;8863;-76
2022/03/18 09:09:19;;;;;;;;;16.80;14.80;;;;;;;;5258872;28;9388;-75
2022/03/18 09:11:50;;;;;;;;;24.50;23.25;;;;;;;;5208763;28;8786;-75
2022/03/18 09:14:21;;;;;;;;;17.00;17.00;;;;;;;;5208685;28;9855;-74
2022/03/18 09:16:52;;;;;;;;;14.20;14.20;;;;;;;;5241903;28;11523;-75
2022/03/18 09:19:41;;;;;;;;;22.20;22.20;;;;;;;;5225605;28;8871;-75
2022/03/18 09:22:16;;;;;;;;;17.80;14.20;;;;;;;;5224502;28;8777;-76
2022/03/18 09:24:47;;;;;;;;;18.60;18.00;;;;;;;;5258592;28;8794;-75
2022/03/18 09:27:18;;;;;;;;;17.20;17.20;;;;;;;;5225531;28;8801;-76
2022/03/18 09:29:49;;;;;;;;;12.75;12.75;;;;;;;;5226596;28;8847;-76
2022/03/18 09:32:20;;;;;;;;;14.75;14.50;;;;;;;;5209208;28;10868;-76
2022/03/18 09:35:14;;;;;;;;;11.80;11.80;;;;;;;;5239614;28;10047;-76
2022/03/18 09:37:45;;;;;;;;;9.00;9.00;;;;;;;;5225346;28;8840;-75
2022/03/18 09:40:16;;;;;;;;;12.50;11.75;;;;;;;;5226172;28;9595;-76
2022/03/18 09:42:57;;;;;;;;;9.00;9.00;;;;;;;;5224711;28;9696;-75
2022/03/18 09:45:31;;;;;;;;;6.40;6.40;;;;;;;;5224609;28;9395;-75
2022/03/18 09:48:03;;;;;;;;;11.60;11.60;;;;;;;;5208769;28;8798;-75
2022/03/18 09:50:35;;;;;;;;;11.20;10.80;;;;;;;;5224775;28;8789;-75
2022/03/18 09:53:06;;;;;;;;;10.40;10.40;;;;;;;;5224820;28;8875;-75
2022/03/18 09:55:38;;;;;;;;;14.00;14.00;;;;;;;;5224581;28;8778;-75
2022/03/18 09:58:11;;;;;;;;;10.00;10.00;;;;;;;;5224479;28;8811;-74
2022/03/18 10:01:01;;;;;;;;;5.40;5.40;;;;;;;;5224876;28;8866;-75
2022/03/18 10:03:39;;;;;;;;;13.00;13.00;;;;;;;;5241175;28;8785;-76
2022/03/18 10:06:28;;;;;;;;;19.20;19.00;;;;;;;;5224116;28;8809;-76
2022/03/18 10:09:00;;;;;;;;;7.60;7.60;;;;;;;;5208458;28;8777;-76
2022/03/18 10:11:33;;;;;;;;;9.20;8.80;;;;;;;;5207812;28;9513;-76
2022/03/18 10:14:06;;;;;;;;;9.60;9.60;;;;;;;;5241482;28;8770;-76
2022/03/18 10:16:39;;;;;;;;;13.20;13.20;;;;;;;;5224135;28;8816;-76
2022/03/18 10:19:14;;;;;;;;;10.00;10.00;;;;;;;;5257508;28;8794;-76
2022/03/18 10:22:01;;;;;;;;;13.80;12.60;;;;;;;;5224216;28;9006;-76
2022/03/18 10:24:56;;;;;;;;;15.20;14.60;;;;;;;;5225402;28;9493;-76
2022/03/18 10:27:28;;;;;;;;;13.80;13.80;;;;;;;;5206348;28;8845;-76
2022/03/18 10:30:26;;;;;;;;;15.20;14.40;;;;;;;;5207528;28;8809;-75
2022/03/18 10:37:04;;;;;;;;;12.60;12.60;;;;;;;;5209588;28;8789;-76
2022/03/18 10:39:42;;;;;;;;;43.40;38.80;;;;;;;;5212696;28;8933;-75
2022/03/18 10:42:15;;;;;;;;;44.00;41.00;;;;;;;;5211450;28;8820;-76
2022/03/18 10:44:46;;;;;;;;;7.80;5.40;;;;;;;;5228447;28;8846;-76
2022/03/18 10:47:25;;;;;;;;;19.00;18.75;;;;;;;;5211776;28;8826;-76
2022/03/18 10:50:16;;;;;;;;;13.20;13.20;;;;;;;;5227713;28;10238;-76
2022/03/18 10:52:47;;;;;;;;;8.00;8.00;;;;;;;;5211653;28;9501;-76
2022/03/18 10:55:19;;;;;;;;;16.25;16.00;;;;;;;;5227944;28;8855;-77
2022/03/18 10:57:54;;;;;;;;;18.00;18.00;;;;;;;;5211351;28;8789;-76
2022/03/18 11:00:27;;;;;;;;;14.60;14.60;;;;;;;;5211225;28;8895;-77
2022/03/18 11:02:59;;;;;;;;;15.60;15.60;;;;;;;;5211550;28;8797;-74
2022/03/18 11:05:51;;;;;;;;;17.20;17.20;;;;;;;;5227727;28;8825;-75
2022/03/18 11:08:22;;;;;;;;;29.00;26.20;;;;;;;;5227502;28;8940;-76
2022/03/18 11:11:07;;;;;;;;;23.00;22.00;;;;;;;;5225578;28;8784;-75
2022/03/18 11:14:06;;;;;;;;;24.20;24.20;;;;;;;;5221334;28;8792;-75
2022/03/18 11:16:41;;;;;;;;;19.00;18.60;;;;;;;;5190594;28;8793;-76
2022/03/18 11:19:14;;;;;;;;;21.80;21.80;;;;;;;;5198519;28;8819;-77
2022/03/18 11:21:45;;;;;;;;;20.40;20.00;;;;;;;;5227586;28;8796;-75
2022/03/18 11:24:22;;;;;;;;;22.20;22.00;;;;;;;;5210354;28;8936;-75
2022/03/18 11:26:54;;;;;;;;;16.80;16.80;;;;;;;;5211118;28;8805;-76
2022/03/18 11:29:26;;;;;;;;;7.20;7.20;;;;;;;;5227352;28;8794;-71
2022/03/18 11:32:12;;;;;;;;;11.80;11.80;;;;;;;;5228548;28;8794;-75
2022/03/18 11:34:45;;;;;;;;;6.00;5.20;;;;;;;;5227662;28;8785;-75
2022/03/18 11:37:17;;;;;;;;;8.40;8.40;;;;;;;;5210528;28;8816;-75
2022/03/18 11:39:48;;;;;;;;;26.80;26.00;;;;;;;;5227986;28;8862;-76
2022/03/18 11:42:38;;;;;;;;;10.20;10.00;;;;;;;;5220994;28;8805;-74
2022/03/18 11:45:09;;;;;;;;;13.00;12.40;;;;;;;;5221571;28;8838;-75
2022/03/18 11:47:43;;;;;;;;;7.40;7.40;;;;;;;;5247393;28;8824;-74
2022/03/18 11:50:35;;;;;;;;;11.00;11.00;;;;;;;;5226858;28;8777;-75
2022/03/18 11:53:06;;;;;;;;;10.20;10.20;;;;;;;;5226927;28;8814;-75
2022/03/18 11:55:37;;;;;;;;;13.80;13.80;;;;;;;;5210056;28;8789;-75
2022/03/18 11:58:30;;;;;;;;;14.60;14.60;;;;;;;;5212783;28;8818;-75
2022/03/18 12:01:01;;;;;;;;;15.60;15.60;;;;;;;;5209964;28;8819;-75
2022/03/18 12:03:36;;;;;;;;;18.20;18.20;;;;;;;;5206346;28;8950;-73
2022/03/18 12:06:07;;;;;;;;;34.60;31.40;;;;;;;;5207912;28;8806;-74
2022/03/18 12:08:53;;;;;;;;;12.00;11.80;;;;;;;;5198375;28;8818;-75
2022/03/18 12:11:26;;;;;;;;;12.00;12.00;;;;;;;;5226259;28;8788;-74
2022/03/18 12:14:16;;;;;;;;;16.60;16.20;;;;;;;;5226654;28;8916;-75
2022/03/18 12:16:56;;;;;;;;;17.20;17.20;;;;;;;;5209534;28;8813;-74
2022/03/18 12:19:27;;;;;;;;;18.80;18.20;;;;;;;;5209888;28;8894;-75
2022/03/18 12:22:00;;;;;;;;;12.75;12.50;;;;;;;;5225198;28;8802;-75
2022/03/18 12:24:32;;;;;;;;;10.00;10.00;;;;;;;;5225849;28;9332;-74
2022/03/18 12:27:03;;;;;;;;;13.00;13.00;;;;;;;;5242894;28;8980;-73
2022/03/18 12:29:34;;;;;;;;;10.80;10.80;;;;;;;;5227342;28;8782;-75
2022/03/18 12:32:06;;;;;;;;;10.20;10.20;;;;;;;;5225887;28;8824;-75
2022/03/18 12:34:56;;;;;;;;;13.40;12.60;;;;;;;;5226456;28;8794;-73
2022/03/18 12:37:32;;;;;;;;;14.60;14.40;;;;;;;;5208898;28;8813;-73
2022/03/18 12:40:21;;;;;;;;;19.40;18.20;;;;;;;;5227218;28;8863;-71
2022/03/18 12:42:56;;;;;;;;;14.80;14.80;;;;;;;;5208887;28;8790;-74
2022/03/18 12:45:32;;;;;;;;;13.40;13.20;;;;;;;;5209178;28;8793;-74
2022/03/18 12:48:04;;;;;;;;;18.60;17.00;;;;;;;;5225710;28;8840;-74
2022/03/18 12:50:39;;;;;;;;;17.00;17.00;;;;;;;;5222642;28;8814;-74
2022/03/18 12:53:18;;;;;;;;;23.40;23.40;;;;;;;;5224280;28;8809;-74
2022/03/18 12:55:53;;;;;;;;;13.60;12.20;;;;;;;;5224746;28;8804;-74
2022/03/18 12:58:36;;;;;;;;;16.40;15.20;;;;;;;;5208124;28;8797;-72
2022/03/18 13:01:11;;;;;;;;;14.20;14.20;;;;;;;;5225381;28;8816;-73
2022/03/18 13:03:49;;;;;;;;;11.60;11.60;;;;;;;;5235843;28;8805;-74
2022/03/18 13:06:22;;;;;;;;;16.40;16.00;;;;;;;;5206049;28;8805;-73
2022/03/18 13:09:16;;;;;;;;;27.60;26.40;;;;;;;;5208445;28;8808;-73
2022/03/18 13:11:47;;;;;;;;;21.80;21.80;;;;;;;;5212116;28;8871;-76
2022/03/18 13:14:30;;;;;;;;;25.00;24.80;;;;;;;;5209450;28;8781;-75
2022/03/18 13:17:03;;;;;;;;;22.00;21.40;;;;;;;;5192316;28;8801;-74
2022/03/18 13:19:36;;;;;;;;;15.40;15.40;;;;;;;;5208577;28;8818;-75
2022/03/18 13:22:07;;;;;;;;;23.00;22.80;;;;;;;;5224438;28;8801;-74
2022/03/18 13:24:38;;;;;;;;;19.00;18.40;;;;;;;;5224670;28;8794;-74
2022/03/18 13:27:10;;;;;;;;;23.50;22.50;;;;;;;;5224818;28;9540;-74
2022/03/18 13:35:27;;;;;;;;;42.40;41.80;;;;;;;;5208374;28;8873;-75
2022/03/18 13:38:07;;;;;;;;;76.80;59.40;;;;;;;;5208419;28;8807;-76
2022/03/18 13:40:39;;;;;;;;;27.40;27.40;;;;;;;;5225969;28;8771;-73
2022/03/18 13:43:10;;;;;;;;;20.00;20.00;;;;;;;;5224501;28;8840;-73
2022/03/18 13:45:42;;;;;;;;;20.25;20.25;;;;;;;;5224483;28;9513;-73
2022/03/18 13:48:32;;;;;;;;;18.20;18.20;;;;;;;;5208477;28;8895;-74
2022/03/18 13:51:06;;;;;;;;;28.00;24.80;;;;;;;;5206978;28;8840;-73
2022/03/18 13:53:39;;;;;;;;;22.40;18.60;;;;;;;;5232691;28;8807;-74
2022/03/18 13:56:14;;;;;;;;;27.40;27.00;;;;;;;;5228719;28;8775;-74
2022/03/18 13:58:46;;;;;;;;;22.60;22.60;;;;;;;;5228632;28;8980;-76
2022/03/18 14:01:18;;;;;;;;;29.20;29.20;;;;;;;;5207676;28;8797;-74
2022/03/18 14:03:54;;;;;;;;;34.80;34.40;;;;;;;;5223883;28;8816;-74
2022/03/18 14:06:25;;;;;;;;;34.80;32.80;;;;;;;;5227724;28;8797;-74
2022/03/18 14:09:11;;;;;;;;;44.50;42.25;;;;;;;;5228061;28;8815;-74
2022/03/18 14:14:33;;;;;;;;;34.00;28.80;;;;;;;;5211741;28;8938;-75
2022/03/18 14:17:11;;;;;;;;;44.40;39.40;;;;;;;;5199887;28;9002;-74
2022/03/18 14:20:08;;;;;;;;;39.20;38.80;;;;;;;;5229487;28;8771;-76
2022/03/18 14:22:41;;;;;;;;;24.80;22.60;;;;;;;;5202397;28;8810;-74
2022/03/18 14:25:14;;;;;;;;;37.20;37.20;;;;;;;;5207539;28;8810;-74
2022/03/18 14:27:46;;;;;;;;;33.20;28.60;;;;;;;;5225089;28;8782;-75
2022/03/18 14:30:21;;;;;;;;;45.40;41.80;;;;;;;;5202996;28;8816;-75
2022/03/18 14:32:59;;;;;;;;;48.80;43.40;;;;;;;;5219966;28;8803;-73
2022/03/18 14:35:30;;;;;;;;;58.80;50.00;;;;;;;;5204513;28;8792;-74
2022/03/18 14:38:01;;;;;;;;;87.80;70.20;;;;;;;;5187169;28;8828;-74
2022/03/18 14:40:33;;;;;;;;;96.40;81.40;;;;;;;;5194482;28;8939;-73
2022/03/18 14:43:06;;;;;;;;;91.40;71.80;;;;;;;;5222102;28;8822;-73
2022/03/18 14:45:37;;;;;;;;;94.20;73.20;;;;;;;;5221830;28;8822;-74
2022/03/18 14:48:08;;;;;;;;;77.00;60.50;;;;;;;;5222187;28;8794;-74
2022/03/18 14:50:40;;;;;;;;;87.00;68.40;;;;;;;;5200844;28;11555;-74
2022/03/18 14:53:13;;;;;;;;;102.40;78.00;;;;;;;;5201381;28;8777;-74
2022/03/18 14:58:33;;;;;;;;;123.25;108.75;;;;;;;;5219642;28;8826;-74
2022/03/18 15:01:04;;;;;;;;;118.50;109.75;;;;;;;;5205678;28;8908;-74
2022/03/18 15:03:35;;;;;;;;;128.75;112.00;;;;;;;;5221890;28;8912;-75
2022/03/18 15:06:06;;;;;;;;;122.50;98.25;;;;;;;;5221412;28;8838;-74
2022/03/18 15:08:38;;;;;;;;;107.67;85.33;;;;;;;;5222072;28;8791;-74
2022/03/18 15:11:11;;;;;;;;;73.20;60.40;;;;;;;;5222002;28;9665;-76
2022/03/18 15:13:42;;;;;;;;;55.60;47.00;;;;;;;;5222088;28;9501;-74
2022/03/18 15:16:14;;;;;;;;;53.80;42.80;;;;;;;;5221643;28;8797;-74
2022/03/18 15:18:45;;;;;;;;;54.00;45.00;;;;;;;;5200591;28;9232;-74
2022/03/18 15:21:16;;;;;;;;;51.25;43.75;;;;;;;;5220160;28;8796;-74
2022/03/18 15:23:47;;;;;;;;;46.00;42.25;;;;;;;;5204985;28;11583;-74
2022/03/18 15:26:18;;;;;;;;;55.60;44.60;;;;;;;;5204650;28;8970;-74
2022/03/18 15:29:07;;;;;;;;;40.60;39.20;;;;;;;;5233786;28;8788;-74
2022/03/18 15:31:38;;;;;;;;;42.50;40.00;;;;;;;;5190963;28;8830;-76
2022/03/18 15:34:10;;;;;;;;;29.60;29.20;;;;;;;;5226050;28;8883;-76
2022/03/18 15:37:00;;;;;;;;;44.40;40.60;;;;;;;;5212633;28;8841;-78
2022/03/18 15:39:32;;;;;;;;;36.60;36.00;;;;;;;;5227999;28;8797;-75
2022/03/18 15:42:04;;;;;;;;;55.40;47.00;;;;;;;;5226668;28;8794;-76
2022/03/18 15:44:35;;;;;;;;;38.40;38.00;;;;;;;;5210339;28;8802;-74
2022/03/18 15:47:06;;;;;;;;;38.60;36.60;;;;;;;;5210388;28;9218;-75
2022/03/18 15:49:37;;;;;;;;;49.00;42.20;;;;;;;;5226203;28;8852;-77
2022/03/18 15:52:11;;;;;;;;;37.40;37.40;;;;;;;;5209048;28;8948;-76